Time;durP1;ratioP1;P1;durP2;ratioP2;P2;SDS_P1;SDS_P2;PMS_P1;PMS_P2;Temp;Humidity;BMP_temperature;BMP_pressure;BME280_temperature;BME280_humidity;BME280_pressure;Samples;Min_cycle;Max_cycle;Signal;HPM_P1;HPM_P2
2023/09/10 00:01:22;;;;;;;25.23;13.65;;;;;;;;;;10391252;28;20042;-80
2023/09/10 00:06:25;;;;;;;25.48;13.27;;;;;;;;;;10389049;28;20066;-80
2023/09/10 00:11:27;;;;;;;25.57;13.93;;;;;;;;;;10391878;28;20077;-79
2023/09/10 00:16:31;;;;;;;20.77;12.52;;;;;;;;;;10395076;28;20067;-80
2023/09/10 00:21:34;;;;;;;22.75;13.10;;;;;;;;;;10394537;28;20042;-80
2023/09/10 00:26:37;;;;;;;23.33;13.73;;;;;;;;;;10401633;28;20044;-80
2023/09/10 00:31:41;;;;;;;21.85;13.60;;;;;;;;;;10396477;28;20049;-79
2023/09/10 00:36:44;;;;;;;24.15;13.90;;;;;;;;;;10396396;28;20053;-79
2023/09/10 00:41:47;;;;;;;24.67;14.07;;;;;;;;;;10387286;28;20092;-79
2023/09/10 00:46:51;;;;;;;25.13;13.70;;;;;;;;;;10384927;28;20033;-79
2023/09/10 00:51:54;;;;;;;21.90;12.73;;;;;;;;;;10392671;28;20050;-79
2023/09/10 00:56:57;;;;;;;;;;;;;;;;;;10387419;28;20568;-79
2023/09/10 01:02:02;;;;;;;24.63;13.32;;;;;;;;;;10391647;28;19943;-79
2023/09/10 01:07:05;;;;;;;22.77;13.18;;;;;;;;;;10381958;28;20090;-79
2023/09/10 01:12:11;;;;;;;23.37;13.90;;;;;;;;;;10392365;28;20081;-79
2023/09/10 01:17:16;;;;;;;25.65;14.48;;;;;;;;;;10392735;28;20047;-79
2023/09/10 01:22:23;;;;;;;23.23;13.82;;;;;;;;;;10388604;28;20072;-80
2023/09/10 01:27:27;;;;;;;28.15;14.40;;;;;;;;;;10395033;28;20045;-80
2023/09/10 01:32:32;;;;;;;22.77;13.50;;;;;;;;;;10389670;28;20057;-79
2023/09/10 01:37:37;;;;;;;23.67;13.85;;;;;;;;;;10401536;28;20055;-79
2023/09/10 01:42:41;;;;;;;24.52;13.80;;;;;;;;;;10402190;28;20042;-80
2023/09/10 01:47:44;;;;;;;22.33;13.65;;;;;;;;;;10394507;28;20104;-79
2023/09/10 01:52:46;;;;;;;24.08;14.10;;;;;;;;;;10400230;28;20065;-80
2023/09/10 01:57:50;;;;;;;26.77;14.23;;;;;;;;;;10394669;28;20049;-79
2023/09/10 02:02:53;;;;;;;21.48;13.45;;;;;;;;;;10401270;28;20453;-80
2023/09/10 02:07:56;;;;;;;24.80;13.60;;;;;;;;;;10396961;28;20055;-79
2023/09/10 02:13:00;;;;;;;25.03;13.70;;;;;;;;;;10398271;28;20045;-80
2023/09/10 02:18:02;;;;;;;25.48;14.63;;;;;;;;;;10395414;28;20391;-80
2023/09/10 02:23:05;;;;;;;24.05;14.20;;;;;;;;;;10391458;28;20502;-78
2023/09/10 02:28:10;;;;;;;22.73;13.80;;;;;;;;;;10398488;28;20041;-79
2023/09/10 02:33:12;;;;;;;24.70;14.20;;;;;;;;;;10402964;28;20132;-79
2023/09/10 02:38:15;;;;;;;24.67;13.47;;;;;;;;;;10390569;28;20049;-80
2023/09/10 02:43:19;;;;;;;23.60;13.77;;;;;;;;;;10395032;28;20410;-79
2023/09/10 02:48:21;;;;;;;22.63;13.15;;;;;;;;;;10389726;28;20303;-80
2023/09/10 02:53:24;;;;;;;23.77;12.43;;;;;;;;;;10390417;28;20502;-79
2023/09/10 02:58:28;;;;;;;23.53;14.23;;;;;;;;;;10396947;28;20573;-79
2023/09/10 03:03:30;;;;;;;20.67;12.18;;;;;;;;;;10391296;28;20045;-80
2023/09/10 03:08:35;;;;;;;19.90;12.57;;;;;;;;;;10393790;28;20045;-80
2023/09/10 03:13:40;;;;;;;23.90;13.18;;;;;;;;;;10402334;28;20103;-79
2023/09/10 03:18:44;;;;;;;24.17;13.13;;;;;;;;;;10398659;28;20056;-79
2023/09/10 03:23:47;;;;;;;22.02;13.40;;;;;;;;;;10401075;28;20042;-79
2023/09/10 03:28:51;;;;;;;19.37;11.43;;;;;;;;;;10402949;28;20050;-79
2023/09/10 03:33:53;;;;;;;21.35;13.02;;;;;;;;;;10396864;28;20425;-79
2023/09/10 03:38:56;;;;;;;23.17;13.67;;;;;;;;;;10394264;28;20104;-79
2023/09/10 03:44:00;;;;;;;30.20;14.27;;;;;;;;;;10399171;28;20072;-79
2023/09/10 03:49:03;;;;;;;28.10;15.10;;;;;;;;;;10390509;28;20523;-79
2023/09/10 03:54:05;;;;;;;24.07;14.07;;;;;;;;;;10391434;28;20034;-79
2023/09/10 03:59:10;;;;;;;25.87;15.20;;;;;;;;;;10393350;28;20152;-79
2023/09/10 04:04:12;;;;;;;27.98;15.20;;;;;;;;;;10389257;28;20304;-80
2023/09/10 04:09:15;;;;;;;26.13;15.23;;;;;;;;;;10397902;28;20045;-80
2023/09/10 04:14:19;;;;;;;27.10;15.73;;;;;;;;;;10392983;28;20049;-80
2023/09/10 04:19:22;;;;;;;27.67;15.63;;;;;;;;;;10396744;28;20053;-79
2023/09/10 04:24:25;;;;;;;27.90;15.20;;;;;;;;;;10391172;28;20041;-79
2023/09/10 04:29:29;;;;;;;27.80;16.17;;;;;;;;;;10400886;28;20065;-79
2023/09/10 04:34:31;;;;;;;28.08;15.73;;;;;;;;;;10393065;28;20335;-80
2023/09/10 04:39:34;;;;;;;34.17;16.27;;;;;;;;;;10393725;28;20045;-80
2023/09/10 04:44:38;;;;;;;26.37;15.33;;;;;;;;;;10407181;28;20184;-80
2023/09/10 04:49:40;;;;;;;32.10;15.98;;;;;;;;;;10399983;28;20068;-80
2023/09/10 04:54:43;;;;;;;31.80;15.07;;;;;;;;;;10387252;28;20063;-79
2023/09/10 04:59:47;;;;;;;28.53;15.90;;;;;;;;;;10390083;28;20069;-80
2023/09/10 05:04:50;;;;;;;28.70;15.73;;;;;;;;;;10394683;28;20339;-79
2023/09/10 05:09:52;;;;;;;29.00;15.03;;;;;;;;;;10391126;28;20052;-80
2023/09/10 05:14:57;;;;;;;27.13;15.33;;;;;;;;;;10395715;28;20046;-79
2023/09/10 05:20:00;;;;;;;29.70;15.52;;;;;;;;;;10390162;28;20598;-78
2023/09/10 05:25:15;;;;;;;30.50;15.43;;;;;;;;;;10391093;28;20053;-78
2023/09/10 05:30:22;;;;;;;24.58;14.77;;;;;;;;;;10389184;28;20507;-81
2023/09/10 05:35:25;;;;;;;23.80;14.60;;;;;;;;;;10399118;28;20430;-79
2023/09/10 05:40:28;;;;;;;24.00;14.70;;;;;;;;;;10392715;28;20399;-79
2023/09/10 05:45:33;;;;;;;25.83;15.18;;;;;;;;;;10392091;28;20091;-79
2023/09/10 05:50:37;;;;;;;26.40;15.48;;;;;;;;;;10391326;28;20070;-79
2023/09/10 05:55:41;;;;;;;25.27;13.95;;;;;;;;;;10390150;28;20045;-79
2023/09/10 06:00:44;;;;;;;24.00;14.45;;;;;;;;;;10384395;28;20049;-79
2023/09/10 06:05:49;;;;;;;23.67;14.10;;;;;;;;;;10396889;28;20133;-79
2023/09/10 06:10:51;;;;;;;25.35;14.25;;;;;;;;;;10392317;28;20087;-80
2023/09/10 06:15:55;;;;;;;24.67;14.52;;;;;;;;;;10390123;28;20057;-80
2023/09/10 06:20:58;;;;;;;25.98;14.88;;;;;;;;;;10396185;28;20100;-80
2023/09/10 06:26:00;;;;;;;20.73;13.52;;;;;;;;;;10399538;28;20050;-80
2023/09/10 06:31:06;;;;;;;24.17;13.73;;;;;;;;;;10392661;28;20561;-80
2023/09/10 06:36:08;;;;;;;21.90;12.90;;;;;;;;;;10396205;28;20187;-80
2023/09/10 06:41:11;;;;;;;18.08;10.43;;;;;;;;;;10390445;28;20467;-80
2023/09/10 06:46:15;;;;;;;16.33;10.43;;;;;;;;;;10397044;28;20040;-80
2023/09/10 06:51:18;;;;;;;13.40;10.00;;;;;;;;;;10390076;28;20089;-80
2023/09/10 06:56:21;;;;;;;15.40;10.90;;;;;;;;;;10391612;28;20040;-80
2023/09/10 07:01:27;;;;;;;17.30;11.45;;;;;;;;;;10395566;28;20463;-80
2023/09/10 07:06:30;;;;;;;16.50;11.30;;;;;;;;;;10394131;28;20108;-80
2023/09/10 07:11:32;;;;;;;15.45;11.40;;;;;;;;;;10394619;28;20129;-81
2023/09/10 07:16:36;;;;;;;12.27;9.48;;;;;;;;;;10393031;28;20080;-80
2023/09/10 07:21:39;;;;;;;14.10;10.65;;;;;;;;;;10390431;28;20121;-80
2023/09/10 07:26:43;;;;;;;10.80;9.65;;;;;;;;;;10403464;28;20041;-82
2023/09/10 07:31:47;;;;;;;13.18;10.27;;;;;;;;;;10409555;28;20047;-80
2023/09/10 07:36:50;;;;;;;13.98;9.82;;;;;;;;;;10399446;28;20064;-80
2023/09/10 07:41:53;;;;;;;11.68;10.30;;;;;;;;;;10394517;28;20072;-79
2023/09/10 07:46:57;;;;;;;11.77;9.38;;;;;;;;;;10397596;28;20037;-80
2023/09/10 07:52:03;;;;;;;11.82;8.85;;;;;;;;;;10395001;28;20395;-79
2023/09/10 07:57:05;;;;;;;11.23;9.27;;;;;;;;;;10389533;28;20113;-80
2023/09/10 08:02:09;;;;;;;9.68;8.55;;;;;;;;;;10388852;28;20053;-80
2023/09/10 08:07:12;;;;;;;9.95;8.57;;;;;;;;;;10388795;28;20037;-81
2023/09/10 08:12:15;;;;;;;9.25;8.35;;;;;;;;;;10386727;28;20055;-81
2023/09/10 08:17:19;;;;;;;8.85;7.53;;;;;;;;;;10394789;28;20402;-81
2023/09/10 08:22:23;;;;;;;9.73;8.25;;;;;;;;;;10379010;28;20519;-82
2023/09/10 08:27:26;;;;;;;8.85;7.95;;;;;;;;;;10403898;28;20038;-82
2023/09/10 08:32:30;;;;;;;13.07;7.88;;;;;;;;;;10390805;28;20037;-82
2023/09/10 08:37:32;;;;;;;9.75;8.75;;;;;;;;;;10382639;28;20042;-82
2023/09/10 08:42:38;;;;;;;10.63;8.73;;;;;;;;;;10390072;28;20073;-82
2023/09/10 08:47:43;;;;;;;8.73;7.90;;;;;;;;;;10398231;28;20566;-81
2023/09/10 08:52:48;;;;;;;8.45;7.65;;;;;;;;;;10390934;28;20374;-81
2023/09/10 08:57:53;;;;;;;9.93;8.00;;;;;;;;;;10395708;28;20040;-81
2023/09/10 09:02:57;;;;;;;9.13;8.02;;;;;;;;;;10398440;28;20041;-80
2023/09/10 09:08:03;;;;;;;9.05;8.15;;;;;;;;;;10387144;28;20116;-80
2023/09/10 09:13:08;;;;;;;8.10;7.30;;;;;;;;;;10392023;28;20119;-80
2023/09/10 09:18:14;;;;;;;8.38;7.32;;;;;;;;;;10383373;28;20128;-80
2023/09/10 09:23:18;;;;;;;9.23;6.97;;;;;;;;;;10394930;28;20078;-81
2023/09/10 09:28:21;;;;;;;8.18;7.40;;;;;;;;;;10390958;28;20053;-82
2023/09/10 09:33:25;;;;;;;7.90;7.20;;;;;;;;;;10387834;28;20049;-81
2023/09/10 09:38:33;;;;;;;7.78;7.00;;;;;;;;;;10399805;28;20053;-82
2023/09/10 09:43:37;;;;;;;9.50;7.93;;;;;;;;;;10388177;28;20163;-81
2023/09/10 09:48:41;;;;;;;9.05;7.05;;;;;;;;;;10392518;28;20088;-81
2023/09/10 09:53:45;;;;;;;8.90;7.65;;;;;;;;;;10390298;28;20125;-81
2023/09/10 09:58:48;;;;;;;8.00;7.20;;;;;;;;;;10408718;28;20037;-80
2023/09/10 10:03:57;;;;;;;7.40;6.45;;;;;;;;;;10409555;28;20498;-79
2023/09/10 10:09:02;;;;;;;7.85;7.05;;;;;;;;;;10406670;28;20040;-80
2023/09/10 10:14:06;;;;;;;8.85;7.45;;;;;;;;;;10390004;28;20041;-80
2023/09/10 10:19:10;;;;;;;9.20;7.00;;;;;;;;;;10392559;28;20136;-80
2023/09/10 10:24:15;;;;;;;8.50;6.50;;;;;;;;;;10403848;28;20037;-80
2023/09/10 10:29:18;;;;;;;10.75;7.28;;;;;;;;;;10400950;28;20041;-80
2023/09/10 10:34:24;;;;;;;8.02;6.20;;;;;;;;;;10396364;28;20087;-82
2023/09/10 10:39:33;;;;;;;8.13;6.30;;;;;;;;;;10398005;28;20145;-81
2023/09/10 10:44:36;;;;;;;8.52;6.28;;;;;;;;;;10402108;28;20046;-81
2023/09/10 10:49:43;;;;;;;7.43;6.25;;;;;;;;;;10393803;28;20049;-81
2023/09/10 10:54:48;;;;;;;7.05;6.35;;;;;;;;;;10397423;28;20048;-81
2023/09/10 10:59:51;;;;;;;8.00;6.50;;;;;;;;;;10402325;28;20077;-81
2023/09/10 11:04:58;;;;;;;6.50;5.90;;;;;;;;;;10395859;28;20567;-83
2023/09/10 11:10:16;;;;;;;8.15;6.78;;;;;;;;;;10396616;28;20091;-81
2023/09/10 11:15:19;;;;;;;6.95;6.07;;;;;;;;;;10396784;28;20091;-81
2023/09/10 11:26:16;;;;;;;7.13;5.95;;;;;;;;;;10517009;27;20418;-81
2023/09/10 11:31:38;;;;;;;8.32;6.47;;;;;;;;;;10489278;28;20092;-82
2023/09/10 11:36:42;;;;;;;8.60;6.10;;;;;;;;;;10480673;28;20070;-81
2023/09/10 11:41:47;;;;;;;6.88;6.18;;;;;;;;;;10476960;28;20036;-81
2023/09/10 11:46:51;;;;;;;9.73;5.78;;;;;;;;;;10491309;28;20041;-81
2023/09/10 11:51:56;;;;;;;6.82;5.40;;;;;;;;;;10487163;28;20083;-79
2023/09/10 11:57:00;;;;;;;6.80;5.68;;;;;;;;;;10473682;28;20162;-81
2023/09/10 12:02:03;;;;;;;8.15;6.00;;;;;;;;;;10478835;28;20053;-80
2023/09/10 12:07:06;;;;;;;7.43;6.10;;;;;;;;;;10486308;28;20143;-81
2023/09/10 12:12:13;;;;;;;9.60;6.32;;;;;;;;;;10478193;28;20037;-81
2023/09/10 12:17:17;;;;;;;9.75;6.80;;;;;;;;;;10471416;28;20037;-81
2023/09/10 12:22:20;;;;;;;6.03;5.43;;;;;;;;;;10486283;28;20049;-81
2023/09/10 12:27:24;;;;;;;7.72;5.55;;;;;;;;;;10481899;28;20132;-81
2023/09/10 12:32:26;;;;;;;5.82;5.22;;;;;;;;;;10478236;28;20130;-81
2023/09/10 12:37:29;;;;;;;8.25;5.80;;;;;;;;;;10448525;28;20037;-81
2023/09/10 12:42:33;;;;;;;7.93;6.60;;;;;;;;;;10450906;28;20124;-81
2023/09/10 12:47:37;;;;;;;6.05;5.45;;;;;;;;;;10444329;28;20695;-82
2023/09/10 12:52:40;;;;;;;9.63;6.40;;;;;;;;;;10450894;28;20498;-81
2023/09/10 12:57:51;;;;;;;9.10;6.53;;;;;;;;;;10443017;28;20178;-81
2023/09/10 13:02:54;;;;;;;8.43;5.90;;;;;;;;;;10449313;28;20065;-79
2023/09/10 13:07:59;;;;;;;7.43;5.45;;;;;;;;;;10440836;28;20112;-81
2023/09/10 13:13:03;;;;;;;8.35;7.30;;;;;;;;;;10446554;28;20132;-80
2023/09/10 13:18:06;;;;;;;8.57;5.50;;;;;;;;;;10451713;28;20072;-80
2023/09/10 13:23:09;;;;;;;9.23;5.75;;;;;;;;;;10446916;28;20048;-79
2023/09/10 13:28:13;;;;;;;12.63;6.00;;;;;;;;;;10449807;28;20080;-80
2023/09/10 13:33:15;;;;;;;7.32;5.43;;;;;;;;;;10452043;28;20033;-80
2023/09/10 13:38:18;;;;;;;6.68;5.15;;;;;;;;;;10450301;28;20051;-79
2023/09/10 13:43:22;;;;;;;6.05;5.10;;;;;;;;;;10450723;28;20503;-81
2023/09/10 13:48:25;;;;;;;7.75;5.38;;;;;;;;;;10441038;28;20120;-80
2023/09/10 13:53:27;;;;;;;5.35;4.60;;;;;;;;;;10446339;28;20116;-81
2023/09/10 13:58:31;;;;;;;6.95;4.97;;;;;;;;;;10441258;28;20490;-80
2023/09/10 14:03:34;;;;;;;10.00;5.60;;;;;;;;;;10438929;28;20068;-80
2023/09/10 14:08:37;;;;;;;7.57;4.70;;;;;;;;;;10448961;28;20055;-80
2023/09/10 14:13:42;;;;;;;6.88;5.43;;;;;;;;;;10441051;28;20493;-79
2023/09/10 14:18:45;;;;;;;7.15;5.28;;;;;;;;;;10445082;28;20095;-80
2023/09/10 14:23:47;;;;;;;10.32;5.25;;;;;;;;;;10448619;28;20079;-80
2023/09/10 14:28:51;;;;;;;9.85;4.82;;;;;;;;;;10447660;28;20050;-79
2023/09/10 14:33:54;;;;;;;7.70;5.13;;;;;;;;;;10447825;28;20446;-79
2023/09/10 14:38:56;;;;;;;8.13;5.95;;;;;;;;;;10441306;28;20577;-80
2023/09/10 14:44:00;;;;;;;7.82;5.20;;;;;;;;;;10456571;28;20041;-80
2023/09/10 14:49:03;;;;;;;7.28;5.10;;;;;;;;;;10462560;28;20057;-80
2023/09/10 14:54:05;;;;;;;10.27;5.72;;;;;;;;;;10458682;28;20045;-81
2023/09/10 14:59:09;;;;;;;9.00;5.00;;;;;;;;;;10451857;28;20146;-80
2023/09/10 15:04:12;;;;;;;7.05;5.32;;;;;;;;;;10455085;28;20127;-80
2023/09/10 15:09:15;;;;;;;6.88;5.35;;;;;;;;;;10450025;28;20052;-81
2023/09/10 15:14:19;;;;;;;8.23;5.40;;;;;;;;;;10446058;28;20068;-80
2023/09/10 15:19:23;;;;;;;10.45;5.63;;;;;;;;;;10448668;28;20120;-81
2023/09/10 15:24:26;;;;;;;6.75;5.35;;;;;;;;;;10434488;28;20127;-80
2023/09/10 15:29:32;;;;;;;8.75;5.70;;;;;;;;;;10443265;28;20060;-79
2023/09/10 15:34:34;;;;;;;7.40;5.47;;;;;;;;;;10447885;28;20437;-80
2023/09/10 15:39:37;;;;;;;8.27;5.60;;;;;;;;;;10448969;28;20099;-80
2023/09/10 15:44:41;;;;;;;7.90;6.00;;;;;;;;;;10436204;28;20045;-80
2023/09/10 15:49:44;;;;;;;8.13;6.28;;;;;;;;;;10444131;28;20453;-80
2023/09/10 15:54:46;;;;;;;10.82;6.22;;;;;;;;;;10445590;28;20136;-79
2023/09/10 15:59:50;;;;;;;8.65;6.20;;;;;;;;;;10447964;28;20052;-80
2023/09/10 16:04:53;;;;;;;10.45;6.55;;;;;;;;;;10445269;28;20049;-80
2023/09/10 16:09:56;;;;;;;8.50;5.97;;;;;;;;;;10447172;28;20037;-80
2023/09/10 16:15:00;;;;;;;9.57;6.53;;;;;;;;;;10449983;28;20110;-80
2023/09/10 16:20:04;;;;;;;7.90;5.68;;;;;;;;;;10441348;28;20048;-80
2023/09/10 16:25:07;;;;;;;10.18;5.60;;;;;;;;;;10451406;28;20045;-80
2023/09/10 16:30:12;;;;;;;8.48;6.22;;;;;;;;;;10454138;28;20061;-80
2023/09/10 16:35:15;;;;;;;8.63;5.53;;;;;;;;;;10447794;28;20407;-79
2023/09/10 16:40:18;;;;;;;8.70;6.57;;;;;;;;;;10450150;28;20490;-80
2023/09/10 16:45:22;;;;;;;10.65;6.55;;;;;;;;;;10443811;28;20563;-79
2023/09/10 16:50:25;;;;;;;9.00;6.50;;;;;;;;;;10440025;28;20056;-79
2023/09/10 16:55:28;;;;;;;9.45;6.70;;;;;;;;;;10451956;28;20040;-80
2023/09/10 17:00:32;;;;;;;10.43;6.50;;;;;;;;;;10443403;28;20155;-79
2023/09/10 17:05:34;;;;;;;11.15;6.10;;;;;;;;;;10448585;28;20041;-80
2023/09/10 17:10:37;;;;;;;11.18;6.18;;;;;;;;;;10445184;28;20041;-79
2023/09/10 17:15:41;;;;;;;10.93;6.40;;;;;;;;;;10440137;28;20406;-79
2023/09/10 17:20:44;;;;;;;10.07;6.50;;;;;;;;;;10442952;28;20048;-80
2023/09/10 17:25:47;;;;;;;13.00;6.63;;;;;;;;;;10449022;28;20044;-79
2023/09/10 17:30:52;;;;;;;9.07;6.70;;;;;;;;;;10446540;28;20127;-79
2023/09/10 17:35:54;;;;;;;10.88;6.95;;;;;;;;;;10442183;28;20041;-79
2023/09/10 17:40:57;;;;;;;10.20;6.60;;;;;;;;;;10446919;28;20045;-79
2023/09/10 17:46:01;;;;;;;11.18;7.07;;;;;;;;;;10450568;28;20037;-79
2023/09/10 17:51:04;;;;;;;11.75;7.00;;;;;;;;;;10449500;28;20087;-80
2023/09/10 17:56:06;;;;;;;13.52;7.00;;;;;;;;;;10445257;28;20045;-80
2023/09/10 18:01:10;;;;;;;10.13;6.68;;;;;;;;;;10447015;28;20041;-80
2023/09/10 18:06:13;;;;;;;12.45;7.20;;;;;;;;;;10450293;28;20045;-78
2023/09/10 18:11:15;;;;;;;;;;;;;;;;;;10437023;28;20049;-79
2023/09/10 18:16:19;;;;;;;10.95;6.32;;;;;;;;;;10452442;28;19920;-81
2023/09/10 18:21:22;;;;;;;11.20;7.13;;;;;;;;;;10443034;28;20557;-79
2023/09/10 18:26:25;;;;;;;;;;;;;;;;;;10458411;28;20071;-79
2023/09/10 18:31:29;;;;;;;14.07;7.80;;;;;;;;;;10456612;28;20515;-79
2023/09/10 18:36:33;;;;;;;13.25;8.00;;;;;;;;;;10441505;28;20053;-81
2023/09/10 18:41:35;;;;;;;14.15;8.02;;;;;;;;;;10443199;28;20069;-79
2023/09/10 18:46:38;;;;;;;;;;;;;;;;;;10443944;28;20041;-79
2023/09/10 18:51:55;;;;;;;12.30;7.80;;;;;;;;;;10442279;28;20027;-79
2023/09/10 18:56:59;;;;;;;12.43;7.30;;;;;;;;;;10447837;28;20124;-79
2023/09/10 19:02:04;;;;;;;11.57;7.57;;;;;;;;;;10445878;28;20592;-80
2023/09/10 19:07:08;;;;;;;;;;;;;;;;;;10438133;28;20045;-80
2023/09/10 19:12:12;;;;;;;11.98;7.25;;;;;;;;;;10448424;28;19924;-80
2023/09/10 19:17:15;;;;;;;14.95;7.97;;;;;;;;;;10448000;28;20075;-80
2023/09/10 19:22:18;;;;;;;;;;;;;;;;;;10455280;28;20654;-79
2023/09/10 19:27:21;;;;;;;15.50;7.90;;;;;;;;;;10448146;28;20012;-79
2023/09/10 19:32:24;;;;;;;16.77;8.88;;;;;;;;;;10447165;28;20458;-81
2023/09/10 19:37:27;;;;;;;12.07;7.13;;;;;;;;;;10450800;28;20052;-80
2023/09/10 19:42:34;;;;;;;12.18;7.40;;;;;;;;;;10448085;28;20044;-80
2023/09/10 19:47:37;;;;;;;12.70;7.20;;;;;;;;;;10455474;28;20077;-80
2023/09/10 19:52:43;;;;;;;10.77;6.85;;;;;;;;;;10450292;28;20504;-81
2023/09/10 19:57:47;;;;;;;12.80;6.32;;;;;;;;;;10457916;28;20152;-81
2023/09/10 20:02:49;;;;;;;11.35;7.00;;;;;;;;;;10445816;28;20068;-81
2023/09/10 20:07:52;;;;;;;14.43;7.60;;;;;;;;;;10443454;28;20041;-80
2023/09/10 20:12:57;;;;;;;15.35;9.10;;;;;;;;;;10451322;28;20060;-80
2023/09/10 20:18:00;;;;;;;12.70;7.45;;;;;;;;;;10444564;28;20106;-80
2023/09/10 20:23:02;;;;;;;;;;;;;;;;;;10453271;28;20076;-79
2023/09/10 20:28:06;;;;;;;12.48;7.32;;;;;;;;;;10454104;28;19920;-80
2023/09/10 20:33:12;;;;;;;13.73;8.27;;;;;;;;;;10448578;28;20103;-81
2023/09/10 20:38:15;;;;;;;11.27;6.38;;;;;;;;;;10441184;28;20033;-80
2023/09/10 20:43:19;;;;;;;12.77;7.03;;;;;;;;;;10453028;28;20060;-81
2023/09/10 20:48:22;;;;;;;12.88;6.97;;;;;;;;;;10452846;28;20132;-81
2023/09/10 20:53:24;;;;;;;14.90;9.35;;;;;;;;;;10442999;28;20437;-80
2023/09/10 20:58:28;;;;;;;12.10;6.90;;;;;;;;;;10448206;28;20032;-79
2023/09/10 21:03:31;;;;;;;13.90;7.22;;;;;;;;;;10440157;28;20094;-79
2023/09/10 21:08:34;;;;;;;12.13;6.72;;;;;;;;;;10453225;28;20053;-78
2023/09/10 21:13:38;;;;;;;18.65;10.02;;;;;;;;;;10447455;28;20037;-80
2023/09/10 21:18:41;;;;;;;12.27;7.65;;;;;;;;;;10450616;28;20148;-79
2023/09/10 21:23:44;;;;;;;13.48;7.57;;;;;;;;;;10450930;28;20847;-80
2023/09/10 21:28:47;;;;;;;15.90;7.72;;;;;;;;;;10452090;28;20390;-80
2023/09/10 21:33:50;;;;;;;12.32;7.28;;;;;;;;;;10460556;28;20067;-80
2023/09/10 21:38:52;;;;;;;12.63;7.05;;;;;;;;;;10452610;28;20132;-80
2023/09/10 21:43:56;;;;;;;15.38;8.63;;;;;;;;;;10452738;28;20041;-80
2023/09/10 21:48:59;;;;;;;11.52;7.15;;;;;;;;;;10445702;28;20065;-79
2023/09/10 21:54:02;;;;;;;14.10;8.00;;;;;;;;;;10444278;28;20045;-78
2023/09/10 21:59:06;;;;;;;14.15;7.30;;;;;;;;;;10440496;28;20049;-80
2023/09/10 22:04:08;;;;;;;15.70;7.93;;;;;;;;;;10449289;28;20110;-80
2023/09/10 22:09:11;;;;;;;12.52;7.00;;;;;;;;;;10436930;28;20056;-81
2023/09/10 22:14:15;;;;;;;12.27;7.30;;;;;;;;;;10449398;28;20053;-79
2023/09/10 22:19:18;;;;;;;13.95;7.50;;;;;;;;;;10444970;28;20056;-79
2023/09/10 22:24:20;;;;;;;10.25;7.10;;;;;;;;;;10439484;28;20045;-79
2023/09/10 22:29:24;;;;;;;11.80;6.00;;;;;;;;;;10442877;28;20071;-79
2023/09/10 22:34:28;;;;;;;12.73;7.10;;;;;;;;;;10444844;28;20124;-79
2023/09/10 22:39:31;;;;;;;10.43;6.18;;;;;;;;;;10443563;28;20071;-79
2023/09/10 22:44:35;;;;;;;12.40;6.97;;;;;;;;;;10434327;28;20451;-79
2023/09/10 22:49:38;;;;;;;16.75;7.22;;;;;;;;;;10440859;28;20041;-81
2023/09/10 22:54:41;;;;;;;13.75;6.65;;;;;;;;;;10443849;28;20060;-80
2023/09/10 22:59:45;;;;;;;15.68;7.20;;;;;;;;;;10451634;28;20072;-79
2023/09/10 23:04:49;;;;;;;13.05;7.15;;;;;;;;;;10439796;28;20411;-80
2023/09/10 23:09:52;;;;;;;13.95;7.20;;;;;;;;;;10446355;28;20044;-79
2023/09/10 23:14:58;;;;;;;12.15;7.25;;;;;;;;;;10447680;28;20047;-79
2023/09/10 23:20:00;;;;;;;10.38;6.78;;;;;;;;;;10438433;28;20048;-80
2023/09/10 23:25:03;;;;;;;12.57;7.28;;;;;;;;;;10446876;28;20245;-80
2023/09/10 23:30:09;;;;;;;14.38;7.57;;;;;;;;;;10440194;28;20513;-79
2023/09/10 23:35:12;;;;;;;11.70;7.18;;;;;;;;;;10446820;28;20114;-80
2023/09/10 23:40:14;;;;;;;14.90;7.72;;;;;;;;;;10444622;28;20080;-80
2023/09/10 23:45:18;;;;;;;12.83;7.63;;;;;;;;;;10448139;28;20037;-80
2023/09/10 23:50:21;;;;;;;13.38;7.90;;;;;;;;;;10436960;28;20616;-79
2023/09/10 23:55:23;;;;;;;12.43;7.43;;;;;;;;;;10451326;28;20384;-80
